sensor_id;sensor_type;location;lat;lon;timestamp;P1;durP1;ratioP1;P2;durP2;ratioP2
64498;SDS011;51087;55.718;21.122;2022-11-20T00:01:20;16.25;;;6.45;;
64498;SDS011;51087;55.718;21.122;2022-11-20T00:03:51;11.48;;;6.32;;
64498;SDS011;51087;55.718;21.122;2022-11-20T00:06:19;11.93;;;6.32;;
64498;SDS011;51087;55.718;21.122;2022-11-20T00:08:45;12.95;;;5.97;;
64498;SDS011;51087;55.718;21.122;2022-11-20T00:11:18;11.68;;;6.03;;
64498;SDS011;51087;55.718;21.122;2022-11-20T00:13:46;13.63;;;6.75;;
64498;SDS011;51087;55.718;21.122;2022-11-20T00:16:14;12.77;;;5.97;;
64498;SDS011;51087;55.718;21.122;2022-11-20T00:18:41;14.77;;;6.32;;
64498;SDS011;51087;55.718;21.122;2022-11-20T00:21:09;11.80;;;5.97;;
64498;SDS011;51087;55.718;21.122;2022-11-20T00:23:36;10.48;;;5.57;;
64498;SDS011;51087;55.718;21.122;2022-11-20T00:26:12;13.63;;;6.15;;
64498;SDS011;51087;55.718;21.122;2022-11-20T00:28:39;13.48;;;6.35;;
64498;SDS011;51087;55.718;21.122;2022-11-20T00:31:09;11.95;;;6.80;;
64498;SDS011;51087;55.718;21.122;2022-11-20T00:33:36;14.40;;;6.55;;
64498;SDS011;51087;55.718;21.122;2022-11-20T00:38:32;13.68;;;6.97;;
64498;SDS011;51087;55.718;21.122;2022-11-20T00:40:58;15.57;;;7.93;;
64498;SDS011;51087;55.718;21.122;2022-11-20T00:43:25;14.10;;;6.45;;
64498;SDS011;51087;55.718;21.122;2022-11-20T00:45:55;15.38;;;7.43;;
64498;SDS011;51087;55.718;21.122;2022-11-20T00:48:22;13.20;;;6.55;;
64498;SDS011;51087;55.718;21.122;2022-11-20T00:50:48;16.45;;;7.03;;
64498;SDS011;51087;55.718;21.122;2022-11-20T00:53:13;15.13;;;7.05;;
64498;SDS011;51087;55.718;21.122;2022-11-20T00:55:39;14.75;;;7.40;;
64498;SDS011;51087;55.718;21.122;2022-11-20T00:58:04;16.85;;;7.47;;
64498;SDS011;51087;55.718;21.122;2022-11-20T01:00:30;15.77;;;7.15;;
64498;SDS011;51087;55.718;21.122;2022-11-20T01:02:55;14.90;;;7.22;;
64498;SDS011;51087;55.718;21.122;2022-11-20T01:05:21;14.30;;;6.47;;
64498;SDS011;51087;55.718;21.122;2022-11-20T01:07:46;13.77;;;6.88;;
64498;SDS011;51087;55.718;21.122;2022-11-20T01:10:12;14.07;;;6.90;;
64498;SDS011;51087;55.718;21.122;2022-11-20T01:12:37;14.90;;;6.93;;
64498;SDS011;51087;55.718;21.122;2022-11-20T01:15:02;14.48;;;7.30;;
64498;SDS011;51087;55.718;21.122;2022-11-20T01:17:28;14.60;;;7.00;;
64498;SDS011;51087;55.718;21.122;2022-11-20T01:19:55;16.25;;;7.38;;
64498;SDS011;51087;55.718;21.122;2022-11-20T01:22:21;18.13;;;7.28;;
64498;SDS011;51087;55.718;21.122;2022-11-20T01:24:46;16.77;;;7.93;;
64498;SDS011;51087;55.718;21.122;2022-11-20T01:27:12;18.00;;;7.60;;
64498;SDS011;51087;55.718;21.122;2022-11-20T01:29:37;14.40;;;7.72;;
64498;SDS011;51087;55.718;21.122;2022-11-20T01:32:03;13.85;;;7.25;;
64498;SDS011;51087;55.718;21.122;2022-11-20T01:34:28;19.13;;;7.97;;
64498;SDS011;51087;55.718;21.122;2022-11-20T01:36:54;16.85;;;7.97;;
64498;SDS011;51087;55.718;21.122;2022-11-20T01:39:21;17.10;;;7.72;;
64498;SDS011;51087;55.718;21.122;2022-11-20T01:41:48;16.67;;;6.85;;
64498;SDS011;51087;55.718;21.122;2022-11-20T01:47:24;18.50;;;8.02;;
64498;SDS011;51087;55.718;21.122;2022-11-20T01:49:52;16.73;;;7.70;;
64498;SDS011;51087;55.718;21.122;2022-11-20T01:52:42;17.65;;;7.72;;
64498;SDS011;51087;55.718;21.122;2022-11-20T01:55:14;18.70;;;7.30;;
64498;SDS011;51087;55.718;21.122;2022-11-20T01:57:43;16.80;;;7.47;;
64498;SDS011;51087;55.718;21.122;2022-11-20T02:00:11;14.75;;;7.60;;
64498;SDS011;51087;55.718;21.122;2022-11-20T02:02:39;16.63;;;7.32;;
64498;SDS011;51087;55.718;21.122;2022-11-20T02:08:00;17.25;;;7.88;;
64498;SDS011;51087;55.718;21.122;2022-11-20T02:10:29;21.10;;;8.13;;
64498;SDS011;51087;55.718;21.122;2022-11-20T02:12:55;16.70;;;7.95;;
64498;SDS011;51087;55.718;21.122;2022-11-20T02:15:39;21.10;;;8.27;;
64498;SDS011;51087;55.718;21.122;2022-11-20T02:18:05;15.73;;;8.05;;
64498;SDS011;51087;55.718;21.122;2022-11-20T02:20:31;20.27;;;9.00;;
64498;SDS011;51087;55.718;21.122;2022-11-20T02:23:21;19.23;;;8.52;;
64498;SDS011;51087;55.718;21.122;2022-11-20T02:26:03;17.90;;;8.07;;
64498;SDS011;51087;55.718;21.122;2022-11-20T02:28:32;22.35;;;9.25;;
64498;SDS011;51087;55.718;21.122;2022-11-20T02:30:58;21.20;;;7.85;;
64498;SDS011;51087;55.718;21.122;2022-11-20T02:33:23;26.30;;;9.38;;
64498;SDS011;51087;55.718;21.122;2022-11-20T02:35:49;19.42;;;8.48;;
64498;SDS011;51087;55.718;21.122;2022-11-20T02:38:14;18.30;;;8.73;;
64498;SDS011;51087;55.718;21.122;2022-11-20T02:40:40;15.48;;;7.60;;
64498;SDS011;51087;55.718;21.122;2022-11-20T02:43:06;20.42;;;9.15;;
64498;SDS011;51087;55.718;21.122;2022-11-20T02:45:32;19.33;;;8.73;;
64498;SDS011;51087;55.718;21.122;2022-11-20T02:47:58;19.40;;;8.75;;
64498;SDS011;51087;55.718;21.122;2022-11-20T02:50:24;19.77;;;7.63;;
64498;SDS011;51087;55.718;21.122;2022-11-20T02:52:50;22.50;;;9.20;;
64498;SDS011;51087;55.718;21.122;2022-11-20T02:55:15;19.38;;;9.00;;
64498;SDS011;51087;55.718;21.122;2022-11-20T02:57:40;19.23;;;8.98;;
64498;SDS011;51087;55.718;21.122;2022-11-20T03:00:06;20.70;;;8.93;;
64498;SDS011;51087;55.718;21.122;2022-11-20T03:02:32;18.95;;;8.57;;
64498;SDS011;51087;55.718;21.122;2022-11-20T03:04:58;18.08;;;8.25;;
64498;SDS011;51087;55.718;21.122;2022-11-20T03:07:24;23.75;;;9.32;;
64498;SDS011;51087;55.718;21.122;2022-11-20T03:09:49;20.48;;;9.88;;
64498;SDS011;51087;55.718;21.122;2022-11-20T03:12:15;18.88;;;8.98;;
64498;SDS011;51087;55.718;21.122;2022-11-20T03:14:40;20.13;;;9.15;;
64498;SDS011;51087;55.718;21.122;2022-11-20T03:17:06;22.33;;;8.38;;
64498;SDS011;51087;55.718;21.122;2022-11-20T03:19:31;16.70;;;8.05;;
64498;SDS011;51087;55.718;21.122;2022-11-20T03:21:57;21.35;;;9.70;;
64498;SDS011;51087;55.718;21.122;2022-11-20T03:24:22;17.42;;;7.50;;
64498;SDS011;51087;55.718;21.122;2022-11-20T03:26:48;22.45;;;9.27;;
64498;SDS011;51087;55.718;21.122;2022-11-20T03:29:13;18.45;;;8.57;;
64498;SDS011;51087;55.718;21.122;2022-11-20T03:31:39;18.30;;;7.85;;
64498;SDS011;51087;55.718;21.122;2022-11-20T03:34:06;23.73;;;10.00;;
64498;SDS011;51087;55.718;21.122;2022-11-20T03:36:33;21.27;;;10.13;;
64498;SDS011;51087;55.718;21.122;2022-11-20T03:38:59;17.55;;;8.43;;
64498;SDS011;51087;55.718;21.122;2022-11-20T03:41:26;22.05;;;9.77;;
64498;SDS011;51087;55.718;21.122;2022-11-20T03:43:57;23.17;;;10.40;;
64498;SDS011;51087;55.718;21.122;2022-11-20T03:46:24;25.20;;;9.38;;
64498;SDS011;51087;55.718;21.122;2022-11-20T03:48:51;20.02;;;9.27;;
64498;SDS011;51087;55.718;21.122;2022-11-20T03:51:17;20.58;;;10.32;;
64498;SDS011;51087;55.718;21.122;2022-11-20T03:53:47;21.08;;;9.27;;
64498;SDS011;51087;55.718;21.122;2022-11-20T03:56:16;21.83;;;9.27;;
64498;SDS011;51087;55.718;21.122;2022-11-20T03:58:42;22.38;;;10.15;;
64498;SDS011;51087;55.718;21.122;2022-11-20T04:01:09;24.13;;;10.43;;
64498;SDS011;51087;55.718;21.122;2022-11-20T04:03:35;23.42;;;9.63;;
64498;SDS011;51087;55.718;21.122;2022-11-20T04:06:03;25.30;;;10.82;;
64498;SDS011;51087;55.718;21.122;2022-11-20T04:08:31;22.02;;;9.45;;
64498;SDS011;51087;55.718;21.122;2022-11-20T04:10:56;21.00;;;10.07;;
64498;SDS011;51087;55.718;21.122;2022-11-20T04:13:38;19.55;;;8.65;;
64498;SDS011;51087;55.718;21.122;2022-11-20T04:16:05;20.75;;;8.68;;
64498;SDS011;51087;55.718;21.122;2022-11-20T04:18:32;25.52;;;10.82;;
64498;SDS011;51087;55.718;21.122;2022-11-20T04:20:58;23.15;;;9.90;;
64498;SDS011;51087;55.718;21.122;2022-11-20T04:23:24;19.63;;;9.20;;
64498;SDS011;51087;55.718;21.122;2022-11-20T04:25:49;21.33;;;9.60;;
64498;SDS011;51087;55.718;21.122;2022-11-20T04:28:15;24.45;;;10.95;;
64498;SDS011;51087;55.718;21.122;2022-11-20T04:30:40;25.17;;;13.07;;
64498;SDS011;51087;55.718;21.122;2022-11-20T04:33:06;20.88;;;9.85;;
64498;SDS011;51087;55.718;21.122;2022-11-20T04:35:33;28.08;;;10.82;;
64498;SDS011;51087;55.718;21.122;2022-11-20T04:37:59;24.58;;;11.30;;
64498;SDS011;51087;55.718;21.122;2022-11-20T04:40:25;24.75;;;11.40;;
64498;SDS011;51087;55.718;21.122;2022-11-20T04:42:51;22.48;;;9.82;;
64498;SDS011;51087;55.718;21.122;2022-11-20T04:45:16;25.00;;;11.13;;
64498;SDS011;51087;55.718;21.122;2022-11-20T04:47:42;23.65;;;10.10;;
64498;SDS011;51087;55.718;21.122;2022-11-20T04:50:07;21.05;;;10.35;;
64498;SDS011;51087;55.718;21.122;2022-11-20T04:52:33;29.02;;;11.48;;
64498;SDS011;51087;55.718;21.122;2022-11-20T04:54:58;25.25;;;11.25;;
64498;SDS011;51087;55.718;21.122;2022-11-20T04:57:25;21.60;;;9.70;;
64498;SDS011;51087;55.718;21.122;2022-11-20T04:59:50;25.25;;;10.30;;
64498;SDS011;51087;55.718;21.122;2022-11-20T05:02:16;27.42;;;10.75;;
64498;SDS011;51087;55.718;21.122;2022-11-20T05:04:41;24.50;;;10.20;;
64498;SDS011;51087;55.718;21.122;2022-11-20T05:07:07;26.60;;;10.50;;
64498;SDS011;51087;55.718;21.122;2022-11-20T05:09:32;23.42;;;10.23;;
64498;SDS011;51087;55.718;21.122;2022-11-20T05:11:57;27.55;;;10.88;;
64498;SDS011;51087;55.718;21.122;2022-11-20T05:14:23;25.48;;;11.00;;
64498;SDS011;51087;55.718;21.122;2022-11-20T05:16:48;22.05;;;10.40;;
64498;SDS011;51087;55.718;21.122;2022-11-20T05:19:14;24.30;;;10.75;;
64498;SDS011;51087;55.718;21.122;2022-11-20T05:21:39;23.27;;;11.00;;
64498;SDS011;51087;55.718;21.122;2022-11-20T05:24:05;24.63;;;11.80;;
64498;SDS011;51087;55.718;21.122;2022-11-20T05:26:30;26.88;;;11.52;;
64498;SDS011;51087;55.718;21.122;2022-11-20T05:28:56;27.02;;;11.43;;
64498;SDS011;51087;55.718;21.122;2022-11-20T05:31:22;29.60;;;12.13;;
64498;SDS011;51087;55.718;21.122;2022-11-20T05:33:49;32.17;;;11.52;;
64498;SDS011;51087;55.718;21.122;2022-11-20T05:36:14;24.25;;;11.10;;
64498;SDS011;51087;55.718;21.122;2022-11-20T05:38:41;24.50;;;11.27;;
64498;SDS011;51087;55.718;21.122;2022-11-20T05:41:11;27.98;;;12.32;;
64498;SDS011;51087;55.718;21.122;2022-11-20T05:43:39;21.17;;;10.15;;
64498;SDS011;51087;55.718;21.122;2022-11-20T05:46:06;29.05;;;11.40;;
64498;SDS011;51087;55.718;21.122;2022-11-20T05:48:33;26.23;;;11.55;;
64498;SDS011;51087;55.718;21.122;2022-11-20T05:51:00;35.63;;;12.60;;
64498;SDS011;51087;55.718;21.122;2022-11-20T05:53:27;23.75;;;11.38;;
64498;SDS011;51087;55.718;21.122;2022-11-20T05:55:56;23.63;;;11.10;;
64498;SDS011;51087;55.718;21.122;2022-11-20T05:58:25;25.83;;;11.25;;
64498;SDS011;51087;55.718;21.122;2022-11-20T06:00:51;25.65;;;11.15;;
64498;SDS011;51087;55.718;21.122;2022-11-20T06:03:16;29.63;;;11.63;;
64498;SDS011;51087;55.718;21.122;2022-11-20T06:05:42;25.05;;;10.77;;
64498;SDS011;51087;55.718;21.122;2022-11-20T06:08:07;22.27;;;10.70;;
64498;SDS011;51087;55.718;21.122;2022-11-20T06:10:32;21.48;;;10.90;;
64498;SDS011;51087;55.718;21.122;2022-11-20T06:12:58;28.77;;;11.45;;
64498;SDS011;51087;55.718;21.122;2022-11-20T06:15:23;27.83;;;11.82;;
64498;SDS011;51087;55.718;21.122;2022-11-20T06:17:53;28.95;;;11.80;;
64498;SDS011;51087;55.718;21.122;2022-11-20T06:20:19;26.45;;;11.43;;
64498;SDS011;51087;55.718;21.122;2022-11-20T06:22:45;26.00;;;12.43;;
64498;SDS011;51087;55.718;21.122;2022-11-20T06:25:10;29.42;;;12.23;;
64498;SDS011;51087;55.718;21.122;2022-11-20T06:27:36;28.20;;;11.80;;
64498;SDS011;51087;55.718;21.122;2022-11-20T06:30:01;32.75;;;14.45;;
64498;SDS011;51087;55.718;21.122;2022-11-20T06:32:27;28.83;;;11.05;;
64498;SDS011;51087;55.718;21.122;2022-11-20T06:34:53;28.08;;;12.07;;
64498;SDS011;51087;55.718;21.122;2022-11-20T06:37:18;25.63;;;11.10;;
64498;SDS011;51087;55.718;21.122;2022-11-20T06:39:44;25.23;;;11.70;;
64498;SDS011;51087;55.718;21.122;2022-11-20T06:42:09;31.08;;;13.27;;
64498;SDS011;51087;55.718;21.122;2022-11-20T06:44:34;30.10;;;13.02;;
64498;SDS011;51087;55.718;21.122;2022-11-20T06:47:00;33.08;;;13.60;;
64498;SDS011;51087;55.718;21.122;2022-11-20T06:49:26;35.42;;;14.52;;
64498;SDS011;51087;55.718;21.122;2022-11-20T06:51:51;27.73;;;12.85;;
64498;SDS011;51087;55.718;21.122;2022-11-20T06:54:16;29.55;;;12.50;;
64498;SDS011;51087;55.718;21.122;2022-11-20T06:56:42;27.15;;;12.63;;
64498;SDS011;51087;55.718;21.122;2022-11-20T06:59:12;29.42;;;13.55;;
64498;SDS011;51087;55.718;21.122;2022-11-20T07:01:37;31.50;;;13.45;;
64498;SDS011;51087;55.718;21.122;2022-11-20T07:04:02;26.92;;;11.63;;
64498;SDS011;51087;55.718;21.122;2022-11-20T07:06:28;28.15;;;12.38;;
64498;SDS011;51087;55.718;21.122;2022-11-20T07:08:53;28.92;;;12.18;;
64498;SDS011;51087;55.718;21.122;2022-11-20T07:11:19;32.22;;;12.38;;
64498;SDS011;51087;55.718;21.122;2022-11-20T07:13:44;27.40;;;12.10;;
64498;SDS011;51087;55.718;21.122;2022-11-20T07:16:10;24.92;;;11.85;;
64498;SDS011;51087;55.718;21.122;2022-11-20T07:18:35;27.75;;;11.23;;
64498;SDS011;51087;55.718;21.122;2022-11-20T07:21:01;30.88;;;13.32;;
64498;SDS011;51087;55.718;21.122;2022-11-20T07:23:28;31.83;;;13.38;;
64498;SDS011;51087;55.718;21.122;2022-11-20T07:25:53;32.03;;;12.18;;
64498;SDS011;51087;55.718;21.122;2022-11-20T07:28:19;25.92;;;11.63;;
64498;SDS011;51087;55.718;21.122;2022-11-20T07:30:49;31.10;;;12.50;;
64498;SDS011;51087;55.718;21.122;2022-11-20T07:33:15;32.70;;;13.40;;
64498;SDS011;51087;55.718;21.122;2022-11-20T07:35:41;20.38;;;9.75;;
64498;SDS011;51087;55.718;21.122;2022-11-20T07:38:06;28.77;;;12.57;;
64498;SDS011;51087;55.718;21.122;2022-11-20T07:40:33;26.27;;;11.93;;
64498;SDS011;51087;55.718;21.122;2022-11-20T07:42:58;30.23;;;12.15;;
64498;SDS011;51087;55.718;21.122;2022-11-20T07:45:23;27.20;;;11.95;;
64498;SDS011;51087;55.718;21.122;2022-11-20T07:47:49;34.35;;;12.70;;
64498;SDS011;51087;55.718;21.122;2022-11-20T07:50:16;32.75;;;13.82;;
64498;SDS011;51087;55.718;21.122;2022-11-20T07:52:42;28.05;;;12.65;;
64498;SDS011;51087;55.718;21.122;2022-11-20T07:55:08;29.25;;;11.75;;
64498;SDS011;51087;55.718;21.122;2022-11-20T07:57:33;27.05;;;12.07;;
64498;SDS011;51087;55.718;21.122;2022-11-20T07:59:59;28.00;;;11.82;;
64498;SDS011;51087;55.718;21.122;2022-11-20T08:02:24;27.23;;;11.90;;
64498;SDS011;51087;55.718;21.122;2022-11-20T08:04:50;26.20;;;11.98;;
64498;SDS011;51087;55.718;21.122;2022-11-20T08:07:16;25.38;;;12.57;;
64498;SDS011;51087;55.718;21.122;2022-11-20T08:09:41;23.77;;;11.27;;
64498;SDS011;51087;55.718;21.122;2022-11-20T08:12:07;28.40;;;11.60;;
64498;SDS011;51087;55.718;21.122;2022-11-20T08:14:50;24.27;;;11.25;;
64498;SDS011;51087;55.718;21.122;2022-11-20T08:17:16;23.50;;;11.50;;
64498;SDS011;51087;55.718;21.122;2022-11-20T08:19:41;22.80;;;11.30;;
64498;SDS011;51087;55.718;21.122;2022-11-20T08:22:07;25.70;;;12.15;;
64498;SDS011;51087;55.718;21.122;2022-11-20T08:24:32;29.13;;;12.18;;
64498;SDS011;51087;55.718;21.122;2022-11-20T08:26:58;26.73;;;11.48;;
64498;SDS011;51087;55.718;21.122;2022-11-20T08:29:24;31.95;;;12.25;;
64498;SDS011;51087;55.718;21.122;2022-11-20T08:31:50;24.88;;;11.90;;
64498;SDS011;51087;55.718;21.122;2022-11-20T08:34:16;27.00;;;12.30;;
64498;SDS011;51087;55.718;21.122;2022-11-20T08:36:41;26.05;;;11.85;;
64498;SDS011;51087;55.718;21.122;2022-11-20T08:39:07;25.50;;;11.95;;
64498;SDS011;51087;55.718;21.122;2022-11-20T08:41:32;38.70;;;16.77;;
64498;SDS011;51087;55.718;21.122;2022-11-20T08:44:05;23.77;;;11.68;;
64498;SDS011;51087;55.718;21.122;2022-11-20T08:46:33;27.80;;;12.43;;
64498;SDS011;51087;55.718;21.122;2022-11-20T08:48:58;23.67;;;11.07;;
64498;SDS011;51087;55.718;21.122;2022-11-20T08:51:24;25.95;;;12.70;;
64498;SDS011;51087;55.718;21.122;2022-11-20T08:53:50;31.65;;;12.65;;
64498;SDS011;51087;55.718;21.122;2022-11-20T08:56:15;27.85;;;13.13;;
64498;SDS011;51087;55.718;21.122;2022-11-20T08:58:41;28.17;;;12.38;;
64498;SDS011;51087;55.718;21.122;2022-11-20T09:01:07;25.33;;;12.15;;
64498;SDS011;51087;55.718;21.122;2022-11-20T09:03:32;16.35;;;8.88;;
64498;SDS011;51087;55.718;21.122;2022-11-20T09:06:01;27.05;;;12.45;;
64498;SDS011;51087;55.718;21.122;2022-11-20T09:08:28;13.50;;;7.15;;
64498;SDS011;51087;55.718;21.122;2022-11-20T09:10:54;26.15;;;12.02;;
64498;SDS011;51087;55.718;21.122;2022-11-20T09:13:21;29.10;;;12.98;;
64498;SDS011;51087;55.718;21.122;2022-11-20T09:15:47;32.10;;;13.73;;
64498;SDS011;51087;55.718;21.122;2022-11-20T09:18:17;30.02;;;13.18;;
64498;SDS011;51087;55.718;21.122;2022-11-20T09:20:43;21.73;;;10.35;;
64498;SDS011;51087;55.718;21.122;2022-11-20T09:23:08;28.90;;;12.85;;
64498;SDS011;51087;55.718;21.122;2022-11-20T09:25:33;27.48;;;13.02;;
64498;SDS011;51087;55.718;21.122;2022-11-20T09:27:59;30.08;;;13.60;;
64498;SDS011;51087;55.718;21.122;2022-11-20T09:30:25;37.63;;;15.73;;
64498;SDS011;51087;55.718;21.122;2022-11-20T09:32:51;53.67;;;19.75;;
64498;SDS011;51087;55.718;21.122;2022-11-20T09:35:17;48.55;;;20.67;;
64498;SDS011;51087;55.718;21.122;2022-11-20T09:37:43;33.35;;;14.27;;
64498;SDS011;51087;55.718;21.122;2022-11-20T09:42:55;32.25;;;13.68;;
64498;SDS011;51087;55.718;21.122;2022-11-20T09:56:47;32.83;;;13.63;;
64498;SDS011;51087;55.718;21.122;2022-11-20T09:59:33;30.95;;;13.93;;
64498;SDS011;51087;55.718;21.122;2022-11-20T10:02:28;29.38;;;13.68;;
64498;SDS011;51087;55.718;21.122;2022-11-20T10:05:02;33.97;;;13.68;;
64498;SDS011;51087;55.718;21.122;2022-11-20T10:10:16;24.65;;;11.98;;
64498;SDS011;51087;55.718;21.122;2022-11-20T10:29:23;41.75;;;15.38;;
64498;SDS011;51087;55.718;21.122;2022-11-20T10:31:27;37.17;;;15.82;;
64498;SDS011;51087;55.718;21.122;2022-11-20T10:33:57;37.75;;;15.63;;
64498;SDS011;51087;55.718;21.122;2022-11-20T10:36:28;25.10;;;12.20;;
64498;SDS011;51087;55.718;21.122;2022-11-20T10:42:00;37.10;;;16.20;;
64498;SDS011;51087;55.718;21.122;2022-11-20T10:44:27;31.27;;;13.23;;
64498;SDS011;51087;55.718;21.122;2022-11-20T10:47:16;36.45;;;16.15;;
64498;SDS011;51087;55.718;21.122;2022-11-20T10:49:43;30.95;;;14.55;;
64498;SDS011;51087;55.718;21.122;2022-11-20T10:58:24;36.72;;;16.08;;
64498;SDS011;51087;55.718;21.122;2022-11-20T11:03:52;30.63;;;13.55;;
64498;SDS011;51087;55.718;21.122;2022-11-20T11:06:32;45.33;;;19.65;;
64498;SDS011;51087;55.718;21.122;2022-11-20T11:09:02;39.58;;;16.90;;
64498;SDS011;51087;55.718;21.122;2022-11-20T11:14:41;25.63;;;11.07;;
64498;SDS011;51087;55.718;21.122;2022-11-20T11:16:55;32.42;;;14.75;;
64498;SDS011;51087;55.718;21.122;2022-11-20T11:19:22;37.70;;;15.80;;
64498;SDS011;51087;55.718;21.122;2022-11-20T11:21:49;39.08;;;16.17;;
64498;SDS011;51087;55.718;21.122;2022-11-20T11:24:24;38.28;;;16.15;;
64498;SDS011;51087;55.718;21.122;2022-11-20T11:27:10;40.50;;;16.15;;
64498;SDS011;51087;55.718;21.122;2022-11-20T11:29:38;33.50;;;16.25;;
64498;SDS011;51087;55.718;21.122;2022-11-20T11:32:08;36.03;;;16.25;;
64498;SDS011;51087;55.718;21.122;2022-11-20T11:34:38;48.58;;;21.50;;
64498;SDS011;51087;55.718;21.122;2022-11-20T11:37:04;30.10;;;13.68;;
64498;SDS011;51087;55.718;21.122;2022-11-20T11:39:42;26.42;;;14.05;;
64498;SDS011;51087;55.718;21.122;2022-11-20T11:44:35;37.08;;;16.92;;
64498;SDS011;51087;55.718;21.122;2022-11-20T11:47:23;39.42;;;17.63;;
64498;SDS011;51087;55.718;21.122;2022-11-20T11:53:34;48.80;;;19.00;;
64498;SDS011;51087;55.718;21.122;2022-11-20T12:00:40;34.40;;;15.38;;
64498;SDS011;51087;55.718;21.122;2022-11-20T12:03:35;45.97;;;18.98;;
64498;SDS011;51087;55.718;21.122;2022-11-20T12:06:21;40.67;;;16.52;;
64498;SDS011;51087;55.718;21.122;2022-11-20T12:08:49;35.65;;;15.73;;
64498;SDS011;51087;55.718;21.122;2022-11-20T12:16:49;39.40;;;14.98;;
64498;SDS011;51087;55.718;21.122;2022-11-20T12:19:17;35.67;;;14.93;;
64498;SDS011;51087;55.718;21.122;2022-11-20T12:34:46;37.80;;;16.05;;
64498;SDS011;51087;55.718;21.122;2022-11-20T12:43:23;39.65;;;16.63;;
64498;SDS011;51087;55.718;21.122;2022-11-20T12:46:15;33.20;;;13.88;;
64498;SDS011;51087;55.718;21.122;2022-11-20T12:54:44;32.90;;;12.95;;
64498;SDS011;51087;55.718;21.122;2022-11-20T13:16:22;43.90;;;18.85;;
64498;SDS011;51087;55.718;21.122;2022-11-20T13:18:49;51.53;;;22.08;;
64498;SDS011;51087;55.718;21.122;2022-11-20T13:23:45;34.78;;;15.45;;
64498;SDS011;51087;55.718;21.122;2022-11-20T13:26:22;39.38;;;17.60;;
64498;SDS011;51087;55.718;21.122;2022-11-20T13:28:59;42.88;;;18.58;;
64498;SDS011;51087;55.718;21.122;2022-11-20T13:31:29;32.65;;;15.45;;
64498;SDS011;51087;55.718;21.122;2022-11-20T13:33:57;25.67;;;13.27;;
64498;SDS011;51087;55.718;21.122;2022-11-20T13:36:26;40.88;;;16.60;;
64498;SDS011;51087;55.718;21.122;2022-11-20T13:38:53;35.10;;;15.05;;
64498;SDS011;51087;55.718;21.122;2022-11-20T13:41:25;41.58;;;19.08;;
64498;SDS011;51087;55.718;21.122;2022-11-20T13:43:53;49.20;;;19.00;;
64498;SDS011;51087;55.718;21.122;2022-11-20T13:46:23;42.67;;;17.70;;
64498;SDS011;51087;55.718;21.122;2022-11-20T13:48:59;44.08;;;19.00;;
64498;SDS011;51087;55.718;21.122;2022-11-20T14:02:10;41.53;;;18.85;;
64498;SDS011;51087;55.718;21.122;2022-11-20T14:04:42;37.00;;;17.88;;
64498;SDS011;51087;55.718;21.122;2022-11-20T14:07:11;40.83;;;17.55;;
64498;SDS011;51087;55.718;21.122;2022-11-20T14:09:36;39.67;;;17.88;;
64498;SDS011;51087;55.718;21.122;2022-11-20T14:12:02;42.85;;;18.58;;
64498;SDS011;51087;55.718;21.122;2022-11-20T14:14:46;50.03;;;19.77;;
64498;SDS011;51087;55.718;21.122;2022-11-20T14:17:24;43.20;;;18.10;;
64498;SDS011;51087;55.718;21.122;2022-11-20T14:19:58;46.60;;;20.88;;
64498;SDS011;51087;55.718;21.122;2022-11-20T14:22:37;42.20;;;19.50;;
64498;SDS011;51087;55.718;21.122;2022-11-20T14:25:04;60.88;;;23.42;;
64498;SDS011;51087;55.718;21.122;2022-11-20T14:27:41;46.00;;;17.88;;
64498;SDS011;51087;55.718;21.122;2022-11-20T14:30:14;44.97;;;18.77;;
64498;SDS011;51087;55.718;21.122;2022-11-20T14:32:40;45.72;;;20.40;;
64498;SDS011;51087;55.718;21.122;2022-11-20T14:35:08;39.88;;;17.88;;
64498;SDS011;51087;55.718;21.122;2022-11-20T14:37:36;43.83;;;17.63;;
64498;SDS011;51087;55.718;21.122;2022-11-20T14:40:23;35.58;;;16.38;;
64498;SDS011;51087;55.718;21.122;2022-11-20T14:42:55;42.90;;;18.65;;
64498;SDS011;51087;55.718;21.122;2022-11-20T14:45:22;31.80;;;13.68;;
64498;SDS011;51087;55.718;21.122;2022-11-20T14:47:48;30.45;;;14.10;;
64498;SDS011;51087;55.718;21.122;2022-11-20T14:50:24;35.47;;;16.33;;
64498;SDS011;51087;55.718;21.122;2022-11-20T14:52:57;35.83;;;16.50;;
64498;SDS011;51087;55.718;21.122;2022-11-20T14:57:58;33.95;;;15.45;;
64498;SDS011;51087;55.718;21.122;2022-11-20T15:00:25;36.22;;;15.02;;
64498;SDS011;51087;55.718;21.122;2022-11-20T15:02:51;39.05;;;15.63;;
64498;SDS011;51087;55.718;21.122;2022-11-20T15:05:18;30.48;;;14.10;;
64498;SDS011;51087;55.718;21.122;2022-11-20T15:08:04;33.13;;;15.57;;
64498;SDS011;51087;55.718;21.122;2022-11-20T15:10:34;36.85;;;16.08;;
64498;SDS011;51087;55.718;21.122;2022-11-20T15:13:00;35.47;;;15.80;;
64498;SDS011;51087;55.718;21.122;2022-11-20T15:17:55;34.75;;;16.50;;
64498;SDS011;51087;55.718;21.122;2022-11-20T15:20:21;40.63;;;17.55;;
64498;SDS011;51087;55.718;21.122;2022-11-20T15:22:51;37.55;;;18.38;;
64498;SDS011;51087;55.718;21.122;2022-11-20T15:25:17;36.60;;;15.98;;
64498;SDS011;51087;55.718;21.122;2022-11-20T15:27:46;39.05;;;15.65;;
64498;SDS011;51087;55.718;21.122;2022-11-20T15:30:16;38.28;;;17.80;;
64498;SDS011;51087;55.718;21.122;2022-11-20T15:32:44;36.38;;;17.10;;
64498;SDS011;51087;55.718;21.122;2022-11-20T15:35:13;42.10;;;16.42;;
64498;SDS011;51087;55.718;21.122;2022-11-20T15:37:40;43.92;;;19.23;;
64498;SDS011;51087;55.718;21.122;2022-11-20T15:40:06;36.55;;;16.02;;
64498;SDS011;51087;55.718;21.122;2022-11-20T15:42:33;42.63;;;18.98;;
64498;SDS011;51087;55.718;21.122;2022-11-20T15:45:01;36.65;;;17.30;;
64498;SDS011;51087;55.718;21.122;2022-11-20T15:47:32;36.78;;;15.63;;
64498;SDS011;51087;55.718;21.122;2022-11-20T15:52:34;36.90;;;15.27;;
64498;SDS011;51087;55.718;21.122;2022-11-20T15:55:04;34.78;;;15.45;;
64498;SDS011;51087;55.718;21.122;2022-11-20T15:57:38;33.50;;;14.95;;
64498;SDS011;51087;55.718;21.122;2022-11-20T16:00:06;25.73;;;12.93;;
64498;SDS011;51087;55.718;21.122;2022-11-20T16:02:35;33.58;;;15.55;;
64498;SDS011;51087;55.718;21.122;2022-11-20T16:05:00;35.05;;;16.23;;
64498;SDS011;51087;55.718;21.122;2022-11-20T16:07:25;42.60;;;17.40;;
64498;SDS011;51087;55.718;21.122;2022-11-20T16:09:54;36.83;;;16.33;;
64498;SDS011;51087;55.718;21.122;2022-11-20T16:12:21;38.40;;;16.70;;
64498;SDS011;51087;55.718;21.122;2022-11-20T16:17:49;32.03;;;12.75;;
64498;SDS011;51087;55.718;21.122;2022-11-20T16:20:15;32.35;;;13.32;;
64498;SDS011;51087;55.718;21.122;2022-11-20T16:22:40;32.28;;;14.82;;
64498;SDS011;51087;55.718;21.122;2022-11-20T16:25:09;32.25;;;14.35;;
64498;SDS011;51087;55.718;21.122;2022-11-20T16:27:34;40.90;;;17.08;;
64498;SDS011;51087;55.718;21.122;2022-11-20T16:30:00;38.00;;;15.10;;
64498;SDS011;51087;55.718;21.122;2022-11-20T16:32:25;37.75;;;15.60;;
64498;SDS011;51087;55.718;21.122;2022-11-20T16:34:50;38.45;;;15.15;;
64498;SDS011;51087;55.718;21.122;2022-11-20T16:37:16;39.20;;;15.73;;
64498;SDS011;51087;55.718;21.122;2022-11-20T16:39:44;35.58;;;15.43;;